createdAt,value
2023-02-07T00:00:57.257Z,-6.40
2023-02-07T00:03:37.352Z,-6.40
2023-02-07T00:06:13.089Z,-6.40
2023-02-07T00:08:41.177Z,-6.50
2023-02-07T00:11:11.662Z,-6.40
2023-02-07T00:13:39.498Z,-6.40
2023-02-07T00:16:08.397Z,-6.40
2023-02-07T00:18:36.157Z,-6.30
2023-02-07T00:21:12.951Z,-6.30
2023-02-07T00:23:40.865Z,-6.30
2023-02-07T00:26:09.185Z,-6.30
2023-02-07T00:28:36.779Z,-6.30
2023-02-07T00:31:11.146Z,-6.30
2023-02-07T00:33:40.262Z,-6.30
2023-02-07T00:36:10.577Z,-6.30
2023-02-07T00:38:38.132Z,-6.20
2023-02-07T00:41:06.209Z,-6.30
2023-02-07T00:43:33.786Z,-6.30
2023-02-07T00:46:03.685Z,-6.30
2023-02-07T00:48:31.241Z,-6.30
2023-02-07T00:50:59.742Z,-6.30
2023-02-07T00:53:28.265Z,-6.30
2023-02-07T00:55:55.658Z,-6.20
2023-02-07T00:58:22.981Z,-6.20
2023-02-07T01:00:51.288Z,-6.30
2023-02-07T01:03:18.731Z,-6.40
2023-02-07T01:05:46.489Z,-6.40
2023-02-07T01:08:14.161Z,-6.40
2023-02-07T01:10:43.803Z,-6.50
2023-02-07T01:13:11.571Z,-6.50
2023-02-07T01:15:45.731Z,-6.60
2023-02-07T01:18:13.352Z,-6.60
2023-02-07T01:20:41.179Z,-6.70
2023-02-07T01:23:08.344Z,-6.80
2023-02-07T01:25:37.794Z,-6.80
2023-02-07T01:28:05.692Z,-6.90
2023-02-07T01:30:33.113Z,-6.90
2023-02-07T01:33:00.564Z,-6.90
2023-02-07T01:35:28.194Z,-6.80
2023-02-07T01:37:55.249Z,-6.70
2023-02-07T01:40:22.871Z,-6.60
2023-02-07T01:42:50.090Z,-6.50
2023-02-07T01:45:40.545Z,-6.30
2023-02-07T01:48:13.684Z,-6.20
2023-02-07T01:50:46.171Z,-6.00
2023-02-07T01:53:16.347Z,-5.90
2023-02-07T01:55:45.820Z,-5.90
2023-02-07T01:58:13.134Z,-5.80
2023-02-07T02:00:41.060Z,-5.80
2023-02-07T02:03:08.001Z,-5.80
2023-02-07T02:05:37.181Z,-5.70
2023-02-07T02:08:05.038Z,-5.70
2023-02-07T02:10:47.423Z,-5.60
2023-02-07T02:13:43.822Z,-5.60
2023-02-07T02:16:44.897Z,-5.60
2023-02-07T02:19:29.935Z,-5.70
2023-02-07T02:22:27.840Z,-5.80
2023-02-07T02:25:18.018Z,-5.80
2023-02-07T02:28:03.501Z,-5.80
2023-02-07T02:30:57.283Z,-5.80
2023-02-07T02:33:42.208Z,-5.90
2023-02-07T02:36:38.226Z,-6.00
2023-02-07T02:39:22.789Z,-6.00
2023-02-07T02:42:04.279Z,-6.00
2023-02-07T02:44:55.875Z,-6.00
2023-02-07T02:47:24.260Z,-5.90
2023-02-07T02:49:52.264Z,-5.70
2023-02-07T02:52:19.259Z,-5.40
2023-02-07T02:54:46.781Z,-5.20
2023-02-07T02:57:39.019Z,-5.00
2023-02-07T03:00:45.836Z,-4.80
2023-02-07T03:03:36.981Z,-4.60
2023-02-07T03:06:29.394Z,-4.50
2023-02-07T03:09:21.104Z,-4.40
2023-02-07T03:11:56.334Z,-4.10
2023-02-07T03:14:30.640Z,-4.20
2023-02-07T03:17:26.088Z,-4.00
2023-02-07T03:20:10.532Z,-4.00
2023-02-07T03:22:38.484Z,-3.80
2023-02-07T03:25:07.667Z,-3.80
2023-02-07T03:27:36.975Z,-3.70
2023-02-07T03:30:10.700Z,-3.70
2023-02-07T03:32:42.116Z,-3.60
2023-02-07T03:35:37.879Z,-3.60
2023-02-07T03:38:06.735Z,-3.50
2023-02-07T03:40:38.912Z,-3.50
2023-02-07T03:43:12.853Z,-3.40
2023-02-07T03:45:40.391Z,-3.40
2023-02-07T03:48:08.234Z,-3.40
2023-02-07T03:50:35.226Z,-3.30
2023-02-07T03:53:02.630Z,-3.30
2023-02-07T03:55:29.840Z,-3.30
2023-02-07T03:57:57.157Z,-3.20
2023-02-07T04:00:24.234Z,-3.20
2023-02-07T04:02:51.585Z,-3.20
2023-02-07T04:05:18.848Z,-3.20
2023-02-07T04:07:46.144Z,-3.20
2023-02-07T04:10:13.225Z,-3.20
2023-02-07T04:12:40.443Z,-3.20
2023-02-07T04:15:08.239Z,-3.10
2023-02-07T04:17:35.994Z,-3.10
2023-02-07T04:20:03.834Z,-3.10
2023-02-07T04:22:31.198Z,-3.20
2023-02-07T04:24:58.319Z,-3.20
2023-02-07T04:27:25.881Z,-3.20
2023-02-07T04:29:52.948Z,-3.20
2023-02-07T04:32:20.243Z,-3.20
2023-02-07T04:34:47.294Z,-3.20
2023-02-07T04:37:14.593Z,-3.20
2023-02-07T04:39:41.644Z,-3.20
2023-02-07T04:42:08.950Z,-3.10
2023-02-07T04:44:35.880Z,-3.10
2023-02-07T04:47:03.250Z,-3.10
2023-02-07T04:49:31.861Z,-3.10
2023-02-07T04:52:01.038Z,-3.00
2023-02-07T04:54:27.956Z,-3.00
2023-02-07T04:56:55.251Z,-3.00
2023-02-07T04:59:22.207Z,-3.00
2023-02-07T05:01:49.437Z,-3.00
2023-02-07T05:04:16.456Z,-3.00
2023-02-07T05:09:11.085Z,-3.00
2023-02-07T05:11:38.647Z,-3.00
2023-02-07T05:14:05.607Z,-3.00
2023-02-07T05:16:32.943Z,-2.90
2023-02-07T05:18:59.974Z,-2.90
2023-02-07T05:21:27.576Z,-2.90
2023-02-07T05:23:54.564Z,-2.90
2023-02-07T05:26:21.807Z,-2.90
2023-02-07T05:28:48.794Z,-2.90
2023-02-07T05:31:16.189Z,-2.90
2023-02-07T05:33:43.296Z,-2.90
2023-02-07T05:36:10.744Z,-2.90
2023-02-07T05:38:37.734Z,-2.80
2023-02-07T05:41:05.310Z,-2.80
2023-02-07T05:43:32.428Z,-2.80
2023-02-07T05:45:59.724Z,-2.70
2023-02-07T05:48:26.777Z,-2.70
2023-02-07T05:50:54.024Z,-2.70
2023-02-07T05:53:21.029Z,-2.70
2023-02-07T05:55:52.613Z,-2.70
2023-02-07T05:58:19.598Z,-2.70
2023-02-07T06:00:48.964Z,-2.60
2023-02-07T06:03:16.100Z,-2.60
2023-02-07T06:05:43.403Z,-2.60
2023-02-07T06:08:10.885Z,-2.60
2023-02-07T06:10:38.555Z,-2.50
2023-02-07T06:13:05.619Z,-2.50
2023-02-07T06:15:33.024Z,-2.50
2023-02-07T06:18:00.241Z,-2.50
2023-02-07T06:20:27.833Z,-2.50
2023-02-07T06:22:54.823Z,-2.50
2023-02-07T06:25:22.538Z,-2.50
2023-02-07T06:27:49.590Z,-2.40
2023-02-07T06:30:17.200Z,-2.40
2023-02-07T06:32:44.211Z,-2.40
2023-02-07T06:35:11.757Z,-2.40
2023-02-07T06:37:38.818Z,-2.40
2023-02-07T06:40:06.719Z,-2.30
2023-02-07T06:42:33.656Z,-2.30
2023-02-07T06:45:01.259Z,-2.30
2023-02-07T06:47:28.265Z,-2.20
2023-02-07T06:49:56.036Z,-2.20
2023-02-07T06:52:22.971Z,-2.20
2023-02-07T06:54:50.261Z,-2.20
2023-02-07T06:57:17.190Z,-2.20
2023-02-07T06:59:44.487Z,-2.10
2023-02-07T07:02:12.720Z,-2.10
2023-02-07T07:04:40.264Z,-2.10
2023-02-07T07:07:07.243Z,-2.10
2023-02-07T07:09:34.630Z,-2.10
2023-02-07T07:12:04.642Z,-2.10
2023-02-07T07:14:32.767Z,-2.10
2023-02-07T07:17:00.314Z,-2.00
2023-02-07T07:19:27.994Z,-2.00
2023-02-07T07:21:55.635Z,-2.00
2023-02-07T07:24:22.923Z,-2.00
2023-02-07T07:29:18.734Z,-1.90
2023-02-07T07:31:47.152Z,-1.90
2023-02-07T07:34:14.947Z,-1.90
2023-02-07T07:36:42.055Z,-1.80
2023-02-07T07:39:10.658Z,-1.80
2023-02-07T07:41:37.852Z,-1.80
2023-02-07T07:44:05.236Z,-1.80
2023-02-07T07:46:32.307Z,-1.70
2023-02-07T07:48:59.941Z,-1.70
2023-02-07T07:51:27.022Z,-1.70
2023-02-07T07:53:54.272Z,-1.70
2023-02-07T07:56:21.287Z,-1.60
2023-02-07T07:58:48.720Z,-1.60
2023-02-07T08:01:16.028Z,-1.60
2023-02-07T08:03:43.507Z,-1.50
2023-02-07T08:06:10.832Z,-1.50
2023-02-07T08:08:38.435Z,-1.50
2023-02-07T08:11:08.630Z,-1.40
2023-02-07T08:13:37.308Z,-1.40
2023-02-07T08:16:11.087Z,-1.40
2023-02-07T08:18:38.419Z,-1.30
2023-02-07T08:21:05.618Z,-1.30
2023-02-07T08:23:33.687Z,-1.20
2023-02-07T08:26:00.818Z,-1.20
2023-02-07T08:28:28.601Z,-1.10
2023-02-07T08:31:03.172Z,-1.10
2023-02-07T08:33:31.865Z,-1.10
2023-02-07T08:36:00.650Z,-1.10
2023-02-07T08:38:27.998Z,-1.10
2023-02-07T08:40:55.039Z,-1.00
2023-02-07T08:43:22.311Z,-1.00
2023-02-07T08:45:49.453Z,-0.90
2023-02-07T08:48:16.825Z,-0.80
2023-02-07T08:50:43.827Z,-0.80
2023-02-07T08:53:11.804Z,-0.80
2023-02-07T08:55:42.330Z,-0.70
2023-02-07T08:58:10.647Z,-0.70
2023-02-07T09:00:38.349Z,-0.70
2023-02-07T09:03:06.424Z,-0.80
2023-02-07T09:05:33.780Z,-0.80
2023-02-07T09:08:02.508Z,-0.80
2023-02-07T09:10:29.909Z,-0.80
2023-02-07T09:12:57.185Z,-0.80
2023-02-07T09:15:24.407Z,-0.90
2023-02-07T09:17:52.012Z,-0.90
2023-02-07T09:20:19.060Z,-0.90
2023-02-07T09:23:05.200Z,-1.00
2023-02-07T09:25:32.447Z,-0.90
2023-02-07T09:28:00.089Z,-0.90
2023-02-07T09:30:27.335Z,-0.80
2023-02-07T09:32:57.110Z,-0.80
2023-02-07T09:35:24.277Z,-0.70
2023-02-07T09:37:55.250Z,-0.70
2023-02-07T09:40:23.025Z,-0.70
2023-02-07T09:43:29.454Z,-0.80
2023-02-07T09:46:13.857Z,-0.80
2023-02-07T09:49:11.885Z,-0.80
2023-02-07T09:51:40.017Z,-0.80
2023-02-07T09:54:24.124Z,-0.90
2023-02-07T09:56:54.708Z,-0.90
2023-02-07T09:59:45.508Z,-0.80
2023-02-07T10:02:36.122Z,-0.90
2023-02-07T10:05:16.888Z,-0.80
2023-02-07T10:07:48.842Z,-0.80
2023-02-07T10:10:55.478Z,-0.70
2023-02-07T10:13:41.231Z,-0.60
2023-02-07T10:16:39.699Z,-0.60
2023-02-07T10:19:22.913Z,-0.60
2023-02-07T10:22:19.453Z,-0.60
2023-02-07T10:25:05.538Z,-0.60
2023-02-07T10:27:43.108Z,-0.50
2023-02-07T10:30:26.782Z,-0.30
2023-02-07T10:32:59.986Z,-0.10
2023-02-07T10:35:37.336Z,0.10
2023-02-07T10:38:07.422Z,0.40
2023-02-07T10:40:52.251Z,0.60
2023-02-07T10:43:32.718Z,0.80
2023-02-07T10:46:09.084Z,1.00
2023-02-07T10:48:38.125Z,1.10
2023-02-07T10:51:31.562Z,1.10
2023-02-07T10:54:05.780Z,1.10
2023-02-07T10:56:37.322Z,1.10
2023-02-07T10:59:04.647Z,1.10
2023-02-07T11:01:34.067Z,1.20
2023-02-07T11:04:01.403Z,1.20
2023-02-07T11:06:34.453Z,1.20
2023-02-07T11:09:32.199Z,1.20
2023-02-07T11:11:59.230Z,1.10
2023-02-07T11:14:28.251Z,1.10
2023-02-07T11:17:01.439Z,1.00
2023-02-07T11:19:30.744Z,1.00
2023-02-07T11:22:18.663Z,1.00
2023-02-07T11:24:47.324Z,1.00
2023-02-07T11:27:17.329Z,1.00
2023-02-07T11:29:59.172Z,1.00
2023-02-07T11:32:28.451Z,1.00
2023-02-07T11:35:09.260Z,1.10
2023-02-07T11:37:47.514Z,1.10
2023-02-07T11:40:38.168Z,1.00
2023-02-07T11:43:18.397Z,1.00
2023-02-07T11:45:52.346Z,0.90
2023-02-07T11:48:21.458Z,0.90
2023-02-07T11:50:54.088Z,0.90
2023-02-07T11:53:40.985Z,0.90
2023-02-07T11:56:24.012Z,0.80
2023-02-07T11:58:52.781Z,0.80
2023-02-07T12:01:25.967Z,0.80
2023-02-07T12:04:01.067Z,0.90
2023-02-07T12:06:42.925Z,1.00
2023-02-07T12:09:24.665Z,1.10
2023-02-07T12:11:54.714Z,1.20
2023-02-07T12:14:36.972Z,1.30
2023-02-07T12:17:10.008Z,1.20
2023-02-07T12:19:45.500Z,1.30
2023-02-07T12:22:44.485Z,1.30
2023-02-07T12:25:22.359Z,1.30
2023-02-07T12:27:53.691Z,1.30
2023-02-07T12:30:44.530Z,1.50
2023-02-07T12:33:24.009Z,1.30
2023-02-07T12:36:13.777Z,1.30
2023-02-07T12:39:20.611Z,1.30
2023-02-07T12:41:55.927Z,1.30
2023-02-07T12:44:47.126Z,1.30
2023-02-07T12:47:40.785Z,1.30
2023-02-07T12:50:19.728Z,1.40
2023-02-07T12:53:10.981Z,1.50
2023-02-07T12:56:04.056Z,1.60
2023-02-07T12:58:36.491Z,1.60
2023-02-07T13:01:37.961Z,1.60
2023-02-07T13:04:23.846Z,1.30
2023-02-07T13:07:09.370Z,4.70
2023-02-07T13:09:59.054Z,1.30
2023-02-07T13:12:39.308Z,1.40
2023-02-07T13:15:40.310Z,1.50
2023-02-07T13:18:11.594Z,1.40
2023-02-07T13:20:41.339Z,1.40
2023-02-07T13:23:21.070Z,1.40
2023-02-07T13:25:53.303Z,1.40
2023-02-07T13:28:47.256Z,1.30
2023-02-07T13:31:17.481Z,1.20
2023-02-07T13:33:47.468Z,1.10
2023-02-07T13:36:14.433Z,1.10
2023-02-07T13:38:54.200Z,1.00
2023-02-07T13:41:53.492Z,1.00
2023-02-07T13:44:31.025Z,1.10
2023-02-07T13:47:19.807Z,1.10
2023-02-07T13:50:01.580Z,1.00
2023-02-07T13:52:43.835Z,1.00
2023-02-07T13:55:20.532Z,0.90
2023-02-07T13:58:06.481Z,0.80
2023-02-07T14:01:07.629Z,0.70
2023-02-07T14:03:35.701Z,0.70
2023-02-07T14:06:20.363Z,0.70
2023-02-07T14:09:18.180Z,0.60
2023-02-07T14:11:49.923Z,0.60
2023-02-07T14:14:29.980Z,0.50
2023-02-07T14:17:03.848Z,0.50
2023-02-07T14:19:39.615Z,0.40
2023-02-07T14:22:29.547Z,0.40
2023-02-07T14:24:59.290Z,0.30
2023-02-07T14:27:29.934Z,0.10
2023-02-07T14:29:59.916Z,0.10
2023-02-07T14:32:28.941Z,0.00
2023-02-07T14:35:16.718Z,0.10
2023-02-07T14:38:09.077Z,-0.10
2023-02-07T14:40:42.042Z,-0.10
2023-02-07T14:43:12.023Z,-0.10
2023-02-07T14:45:51.469Z,-0.10
2023-02-07T14:48:43.223Z,-0.10
2023-02-07T14:51:23.663Z,-0.20
2023-02-07T14:54:08.524Z,-0.20
2023-02-07T14:56:53.529Z,-0.20
2023-02-07T14:59:36.512Z,-0.20
2023-02-07T15:02:26.891Z,-0.30
2023-02-07T15:04:54.237Z,-0.30
2023-02-07T15:07:21.292Z,-0.40
2023-02-07T15:09:48.796Z,-0.40
2023-02-07T15:12:27.312Z,-0.40
2023-02-07T15:14:57.181Z,-0.40
2023-02-07T15:17:33.406Z,-0.50
2023-02-07T15:20:06.964Z,-0.50
2023-02-07T15:22:34.418Z,-0.50
2023-02-07T15:25:02.097Z,-0.60
2023-02-07T15:27:30.095Z,-0.60
2023-02-07T15:30:04.048Z,-0.60
2023-02-07T15:32:34.846Z,-0.60
2023-02-07T15:35:18.734Z,-0.60
2023-02-07T15:37:47.367Z,-0.70
2023-02-07T15:40:19.399Z,-0.70
2023-02-07T15:42:59.519Z,-0.80
2023-02-07T15:45:30.480Z,-0.50
2023-02-07T15:48:09.140Z,-0.80
2023-02-07T15:50:37.752Z,-0.80
2023-02-07T15:53:08.573Z,-0.80
2023-02-07T15:55:43.204Z,-0.80
2023-02-07T15:58:20.898Z,-0.80
2023-02-07T16:00:49.541Z,-0.80
2023-02-07T16:03:23.071Z,-0.80
2023-02-07T16:06:03.610Z,-0.80
2023-02-07T16:08:40.331Z,-0.90
2023-02-07T16:11:25.764Z,-0.80
2023-02-07T16:13:54.295Z,-0.80
2023-02-07T16:16:28.193Z,-0.90
2023-02-07T16:19:19.959Z,-0.90
2023-02-07T16:21:52.384Z,-0.90
2023-02-07T16:24:22.850Z,-0.90
2023-02-07T16:26:51.412Z,-0.90
2023-02-07T16:29:21.313Z,-1.00
2023-02-07T16:31:49.377Z,-1.00
2023-02-07T16:34:18.326Z,-1.00
2023-02-07T16:36:51.036Z,-1.00
2023-02-07T16:39:18.449Z,-1.00
2023-02-07T16:41:49.082Z,-0.50
2023-02-07T16:44:23.017Z,-0.90
2023-02-07T16:46:50.828Z,-0.90
2023-02-07T16:49:21.496Z,-0.90
2023-02-07T16:51:49.298Z,-0.90
2023-02-07T16:54:16.376Z,-0.90
2023-02-07T16:56:44.827Z,-0.90
2023-02-07T16:59:18.337Z,-0.90
2023-02-07T17:01:46.305Z,-0.90
2023-02-07T17:04:13.689Z,-0.90
2023-02-07T17:06:42.496Z,-0.90
2023-02-07T17:09:18.788Z,-0.90
2023-02-07T17:11:46.994Z,-0.90
2023-02-07T17:14:14.280Z,-0.90
2023-02-07T17:16:42.124Z,-1.00
2023-02-07T17:19:13.183Z,-0.90
2023-02-07T17:21:42.003Z,-1.00
2023-02-07T17:24:10.002Z,-1.00
2023-02-07T17:26:39.213Z,0.90
2023-02-07T17:29:06.711Z,-1.00
2023-02-07T17:31:34.029Z,-1.00
2023-02-07T17:34:01.181Z,-1.00
2023-02-07T17:36:29.093Z,-1.00
2023-02-07T17:38:58.926Z,-1.10
2023-02-07T17:41:26.497Z,-1.10
2023-02-07T17:43:54.105Z,-1.10
2023-02-07T17:46:23.877Z,-1.10
2023-02-07T17:48:51.883Z,-1.20
2023-02-07T17:51:21.600Z,-1.20
2023-02-07T17:53:48.572Z,-1.20
2023-02-07T17:56:25.663Z,-1.20
2023-02-07T17:58:54.297Z,-1.10
2023-02-07T18:01:22.430Z,-1.10
2023-02-07T18:03:51.102Z,-1.10
2023-02-07T18:06:20.430Z,-1.10
2023-02-07T18:08:47.597Z,-1.10
2023-02-07T18:11:15.079Z,-1.10
2023-02-07T18:13:44.211Z,-1.10
2023-02-07T18:16:23.988Z,-1.10
2023-02-07T18:18:52.875Z,0.10
2023-02-07T18:21:20.470Z,-1.20
2023-02-07T18:23:47.943Z,-1.20
2023-02-07T18:26:16.047Z,-1.20
2023-02-07T18:28:44.125Z,-1.20
2023-02-07T18:31:17.909Z,-1.20
2023-02-07T18:33:45.611Z,-1.20
2023-02-07T18:36:12.971Z,-1.10
2023-02-07T18:38:40.313Z,-1.20
2023-02-07T18:41:12.562Z,-2.90
2023-02-07T18:43:41.424Z,-1.20
2023-02-07T18:46:10.554Z,-1.20
2023-02-07T18:48:38.137Z,-1.20
2023-02-07T18:51:10.519Z,-1.20
2023-02-07T18:53:38.557Z,-1.20
2023-02-07T18:56:07.824Z,-1.20
2023-02-07T18:58:35.456Z,-1.20
2023-02-07T19:01:10.588Z,-1.30
2023-02-07T19:03:38.587Z,-1.30
2023-02-07T19:06:07.465Z,-1.30
2023-02-07T19:08:35.313Z,-1.30
2023-02-07T19:11:05.383Z,-1.30
2023-02-07T19:13:34.421Z,-1.30
2023-02-07T19:16:19.263Z,-1.30
2023-02-07T19:18:47.890Z,-1.30
2023-02-07T19:21:19.113Z,-1.30
2023-02-07T19:23:46.716Z,-1.30
2023-02-07T19:26:13.687Z,-1.30
2023-02-07T19:28:41.030Z,-1.30
2023-02-07T19:31:10.630Z,-1.30
2023-02-07T19:33:38.259Z,-1.30
2023-02-07T19:36:11.384Z,-1.30
2023-02-07T19:38:39.133Z,-1.30
2023-02-07T19:41:06.998Z,-1.30
2023-02-07T19:43:35.960Z,-1.30
2023-02-07T19:46:02.905Z,-1.20
2023-02-07T19:48:30.608Z,-1.20
2023-02-07T19:51:02.758Z,-1.20
2023-02-07T19:53:31.180Z,-1.30
2023-02-07T19:56:03.299Z,-1.30
2023-02-07T19:58:31.851Z,-1.30
2023-02-07T20:00:59.916Z,0.00
2023-02-07T20:03:27.468Z,-1.30
2023-02-07T20:05:54.515Z,-1.30
2023-02-07T20:08:21.716Z,-1.30
2023-02-07T20:10:48.987Z,-1.30
2023-02-07T20:13:16.688Z,-1.30
2023-02-07T20:15:45.326Z,-1.30
2023-02-07T20:18:14.216Z,-1.30
2023-02-07T20:20:48.113Z,-1.30
2023-02-07T20:23:16.038Z,-1.30
2023-02-07T20:25:43.053Z,-1.30
2023-02-07T20:28:10.355Z,-1.30
2023-02-07T20:30:44.402Z,-1.30
2023-02-07T20:33:11.657Z,-1.30
2023-02-07T20:35:39.297Z,-1.20
2023-02-07T20:38:06.608Z,-1.20
2023-02-07T20:40:33.625Z,-1.30
2023-02-07T20:43:01.109Z,-1.30
2023-02-07T20:45:28.607Z,-1.30
2023-02-07T20:47:56.242Z,-1.30
2023-02-07T20:50:23.272Z,-1.30
2023-02-07T20:52:50.752Z,-1.30
2023-02-07T20:55:18.687Z,-1.30
2023-02-07T20:57:45.955Z,-1.30
2023-02-07T21:00:13.851Z,-1.30
2023-02-07T21:02:42.520Z,-1.30
2023-02-07T21:05:09.536Z,-1.30
2023-02-07T21:07:36.785Z,-1.30
2023-02-07T21:10:04.661Z,-1.30
2023-02-07T21:12:32.506Z,-1.40
2023-02-07T21:14:59.454Z,-1.40
2023-02-07T21:17:26.933Z,-1.40
2023-02-07T21:19:53.891Z,-1.40
2023-02-07T21:22:23.881Z,-1.40
2023-02-07T21:24:51.169Z,-1.30
2023-02-07T21:27:18.792Z,-1.30
2023-02-07T21:29:45.748Z,-1.30
2023-02-07T21:32:13.272Z,-1.30
2023-02-07T21:34:40.310Z,-1.30
2023-02-07T21:37:07.637Z,-1.40
2023-02-07T21:39:34.630Z,-1.40
2023-02-07T21:42:01.924Z,-1.40
2023-02-07T21:44:29.350Z,-1.30
2023-02-07T21:46:57.310Z,-1.30
2023-02-07T21:49:24.604Z,-1.40
2023-02-07T21:51:53.811Z,-1.40
2023-02-07T21:54:20.845Z,-1.40
2023-02-07T21:56:50.017Z,-1.40
2023-02-07T21:59:18.861Z,-1.50
2023-02-07T22:01:46.821Z,-1.40
2023-02-07T22:04:14.778Z,-1.40
2023-02-07T22:06:44.285Z,-1.40
2023-02-07T22:09:13.445Z,-1.40
2023-02-07T22:11:41.279Z,-1.50
2023-02-07T22:14:08.261Z,-1.40
2023-02-07T22:16:36.196Z,-1.50
2023-02-07T22:19:05.589Z,-1.50
2023-02-07T22:21:35.209Z,-1.50
2023-02-07T22:24:03.371Z,-1.50
2023-02-07T22:26:31.122Z,-1.40
2023-02-07T22:28:59.187Z,-1.40
2023-02-07T22:31:29.097Z,-1.40
2023-02-07T22:34:00.378Z,-1.50
2023-02-07T22:36:30.212Z,-1.40
2023-02-07T22:38:59.389Z,-1.40
2023-02-07T22:41:27.784Z,-1.40
2023-02-07T22:43:54.900Z,-1.40
2023-02-07T22:46:24.591Z,-1.40
2023-02-07T22:48:52.666Z,-1.40
2023-02-07T22:51:28.859Z,-1.50
2023-02-07T22:53:58.605Z,-1.50
2023-02-07T22:56:27.086Z,-1.50
2023-02-07T22:58:55.237Z,-1.50
2023-02-07T23:01:26.962Z,-1.60
2023-02-07T23:03:54.855Z,-1.60
2023-02-07T23:06:23.624Z,-1.60
2023-02-07T23:08:51.469Z,-1.50
2023-02-07T23:11:21.020Z,-1.60
2023-02-07T23:13:48.350Z,-1.50
2023-02-07T23:16:24.351Z,-1.50
2023-02-07T23:18:56.188Z,-1.60
2023-02-07T23:21:25.102Z,-1.60
2023-02-07T23:23:52.394Z,-1.60
2023-02-07T23:26:22.251Z,-1.50
2023-02-07T23:28:49.879Z,-1.60
2023-02-07T23:31:20.298Z,-1.70
2023-02-07T23:33:48.127Z,-1.60
2023-02-07T23:36:17.710Z,-1.60
2023-02-07T23:38:46.135Z,-1.60
2023-02-07T23:41:13.781Z,-1.60
2023-02-07T23:43:40.898Z,-1.60
2023-02-07T23:46:09.156Z,-1.60
2023-02-07T23:48:38.602Z,-1.60
2023-02-07T23:51:06.937Z,-1.60
2023-02-07T23:53:34.341Z,-1.60
2023-02-07T23:56:03.140Z,-1.60
2023-02-07T23:58:30.149Z,-1.50
